createdAt,value
2018-04-02T00:02:13.899Z,113.10
2018-04-02T00:04:42.225Z,116.50
2018-04-02T00:07:10.497Z,114.17
2018-04-02T00:09:38.057Z,115.47
2018-04-02T00:12:05.589Z,113.20
2018-04-02T00:14:33.172Z,111.53
2018-04-02T00:17:00.794Z,113.07
2018-04-02T00:19:29.050Z,112.87
2018-04-02T00:21:57.338Z,112.13
2018-04-02T00:24:24.918Z,110.63
2018-04-02T00:26:52.486Z,112.27
2018-04-02T00:29:20.011Z,111.43
2018-04-02T00:31:48.311Z,114.10
2018-04-02T00:34:15.853Z,112.50
2018-04-02T00:36:44.118Z,113.63
2018-04-02T00:39:11.634Z,115.73
2018-04-02T00:41:39.122Z,115.47
2018-04-02T00:44:06.695Z,117.47
2018-04-02T00:46:34.300Z,113.47
2018-04-02T00:49:01.803Z,112.10
2018-04-02T00:51:29.372Z,114.53
2018-04-02T00:53:57.653Z,113.03
2018-04-02T00:56:25.949Z,115.07
2018-04-02T00:58:54.270Z,120.03
2018-04-02T01:01:21.810Z,113.93
2018-04-02T01:03:49.380Z,117.33
2018-04-02T01:06:16.917Z,117.83
2018-04-02T01:08:44.408Z,120.27
2018-04-02T01:11:12.425Z,118.20
2018-04-02T01:13:40.775Z,120.37
2018-04-02T01:16:08.279Z,123.20
2018-04-02T01:18:35.883Z,121.23
2018-04-02T01:21:03.384Z,124.80
2018-04-02T01:23:31.703Z,125.67
2018-04-02T01:25:59.303Z,125.43
2018-04-02T01:28:27.280Z,127.33
2018-04-02T01:30:55.766Z,123.70
2018-04-02T01:33:24.057Z,125.67
2018-04-02T01:35:51.690Z,129.27
2018-04-02T01:38:20.191Z,127.43
2018-04-02T01:40:47.756Z,133.53
2018-04-02T01:43:16.010Z,132.23
2018-04-02T01:45:43.521Z,133.77
2018-04-02T01:48:11.346Z,132.40
2018-04-02T01:50:39.678Z,134.63
2018-04-02T01:53:07.268Z,134.27
2018-04-02T01:55:34.821Z,133.43
2018-04-02T01:58:02.310Z,136.37
2018-04-02T02:00:30.596Z,139.83
2018-04-02T02:02:58.226Z,144.73
2018-04-02T02:05:25.759Z,146.03
2018-04-02T02:07:53.254Z,145.30
2018-04-02T02:10:21.603Z,140.13
2018-04-02T02:12:49.188Z,145.50
2018-04-02T02:15:16.756Z,146.80
2018-04-02T02:17:45.080Z,147.30
2018-04-02T02:20:12.594Z,145.30
2018-04-02T02:22:40.909Z,147.77
2018-04-02T02:25:08.419Z,149.57
2018-04-02T02:27:35.965Z,153.80
2018-04-02T02:30:03.489Z,156.87
2018-04-02T02:32:31.040Z,151.60
2018-04-02T02:34:58.560Z,155.73
2018-04-02T02:37:26.062Z,155.77
2018-04-02T02:39:53.577Z,158.67
2018-04-02T02:42:21.165Z,154.33
2018-04-02T02:44:48.675Z,147.63
2018-04-02T02:47:16.188Z,148.60
2018-04-02T02:49:43.692Z,148.40
2018-04-02T02:52:11.261Z,150.60
2018-04-02T02:54:38.933Z,147.13
2018-04-02T02:57:06.522Z,147.10
2018-04-02T02:59:34.861Z,148.03
2018-04-02T03:02:02.479Z,151.23
2018-04-02T03:04:30.022Z,156.27
2018-04-02T03:06:58.497Z,156.57
2018-04-02T03:09:26.933Z,153.17
2018-04-02T03:11:55.234Z,156.47
2018-04-02T03:14:23.412Z,159.77
2018-04-02T03:16:50.958Z,153.63
2018-04-02T03:19:18.486Z,155.57
2018-04-02T03:21:46.105Z,151.83
2018-04-02T03:24:14.387Z,151.93
2018-04-02T03:26:42.661Z,156.80
2018-04-02T03:29:10.959Z,156.00
2018-04-02T03:31:38.538Z,156.03
2018-04-02T03:34:06.158Z,157.80
2018-04-02T03:36:35.293Z,154.10
2018-04-02T03:39:02.848Z,155.83
2018-04-02T03:41:30.398Z,158.07
2018-04-02T03:43:57.888Z,163.03
2018-04-02T03:46:25.425Z,172.17
2018-04-02T03:48:52.934Z,164.60
2018-04-02T03:51:20.440Z,171.93
2018-04-02T03:53:47.968Z,173.73
2018-04-02T03:56:16.301Z,171.47
2018-04-02T03:58:43.978Z,178.73
2018-04-02T04:01:11.505Z,167.97
2018-04-02T04:03:39.093Z,182.80
2018-04-02T04:06:06.716Z,174.33
2018-04-02T04:08:34.220Z,180.63
2018-04-02T04:11:01.717Z,177.80
2018-04-02T04:13:29.300Z,185.87
2018-04-02T04:15:56.833Z,178.13
2018-04-02T04:18:25.180Z,183.00
2018-04-02T04:20:52.698Z,173.43
2018-04-02T04:23:20.220Z,179.30
2018-04-02T04:25:48.485Z,177.63
2018-04-02T04:28:16.752Z,173.43
2018-04-02T04:30:45.120Z,167.80
2018-04-02T04:33:12.671Z,173.90
2018-04-02T04:35:40.183Z,177.90
2018-04-02T04:38:07.691Z,175.00
2018-04-02T04:40:35.295Z,177.87
2018-04-02T04:43:04.464Z,177.00
2018-04-02T04:45:32.741Z,168.07
2018-04-02T04:48:00.315Z,169.07
2018-04-02T04:50:28.610Z,162.27
2018-04-02T04:52:56.217Z,190.90
2018-04-02T04:55:23.775Z,196.57
2018-04-02T04:57:51.263Z,186.00
2018-04-02T05:00:19.424Z,186.80
2018-04-02T05:02:47.017Z,187.53
2018-04-02T05:05:15.344Z,196.00
2018-04-02T05:07:42.898Z,192.03
2018-04-02T05:10:10.412Z,176.23
2018-04-02T05:12:38.691Z,163.77
2018-04-02T05:15:06.968Z,169.30
2018-04-02T05:17:35.967Z,159.33
2018-04-02T05:20:03.453Z,160.37
2018-04-02T05:22:30.953Z,152.90
2018-04-02T05:24:58.571Z,154.70
2018-04-02T05:27:26.130Z,156.83
2018-04-02T05:29:53.641Z,151.27
2018-04-02T05:32:21.989Z,143.17
2018-04-02T05:34:49.541Z,150.13
2018-04-02T05:37:17.132Z,140.67
2018-04-02T05:39:44.906Z,140.43
2018-04-02T05:42:12.344Z,135.07
2018-04-02T05:44:40.009Z,134.73
2018-04-02T05:47:07.570Z,134.00
2018-04-02T05:49:35.143Z,132.40
2018-04-02T05:52:02.787Z,135.43
2018-04-02T05:54:30.351Z,133.67
2018-04-02T05:56:58.070Z,127.57
2018-04-02T05:59:25.668Z,121.97
2018-04-02T06:01:53.180Z,125.57
2018-04-02T06:04:20.777Z,124.23
2018-04-02T06:06:48.337Z,119.10
2018-04-02T06:09:15.945Z,118.23
2018-04-02T06:11:43.524Z,120.50
2018-04-02T06:14:11.060Z,116.77
2018-04-02T06:16:38.595Z,112.13
2018-04-02T06:19:06.076Z,105.93
2018-04-02T06:21:34.912Z,107.00
2018-04-02T06:24:02.492Z,103.53
2018-04-02T06:26:29.995Z,99.03
2018-04-02T06:28:58.323Z,97.03
2018-04-02T06:31:25.937Z,100.53
2018-04-02T06:33:54.321Z,88.47
2018-04-02T06:36:21.829Z,89.17
2018-04-02T06:38:49.444Z,73.53
2018-04-02T06:41:17.551Z,86.47
2018-04-02T06:43:45.167Z,87.37
2018-04-02T06:46:13.519Z,84.20
2018-04-02T06:48:41.021Z,84.27
2018-04-02T06:51:08.602Z,85.63
2018-04-02T06:53:36.268Z,88.50
2018-04-02T06:56:03.835Z,84.90
2018-04-02T06:58:31.447Z,81.20
2018-04-02T07:00:59.724Z,77.80
2018-04-02T07:03:28.025Z,78.73
2018-04-02T07:05:55.552Z,79.03
2018-04-02T07:08:23.063Z,76.90
2018-04-02T07:10:50.666Z,77.97
2018-04-02T07:13:18.224Z,79.60
2018-04-02T07:15:45.791Z,78.07
2018-04-02T07:18:14.132Z,76.10
2018-04-02T07:20:41.835Z,76.23
2018-04-02T07:23:10.146Z,74.70
2018-04-02T07:25:37.889Z,76.43
2018-04-02T07:28:06.128Z,76.10
2018-04-02T07:30:33.692Z,77.33
2018-04-02T07:33:01.290Z,79.83
2018-04-02T07:35:28.851Z,77.03
2018-04-02T07:37:56.408Z,77.43
2018-04-02T07:40:23.945Z,66.30
2018-04-02T07:42:51.474Z,68.33
2018-04-02T07:45:19.053Z,65.33
2018-04-02T07:47:46.638Z,62.80
2018-04-02T07:50:14.159Z,64.40
2018-04-02T07:52:41.854Z,61.90
2018-04-02T07:55:09.420Z,61.60
2018-04-02T07:57:36.946Z,62.27
2018-04-02T08:00:04.599Z,58.33
2018-04-02T08:02:32.101Z,60.53
2018-04-02T08:05:00.487Z,62.40
2018-04-02T08:07:27.998Z,61.00
2018-04-02T08:09:55.495Z,62.90
2018-04-02T08:12:23.769Z,64.83
2018-04-02T08:14:52.104Z,61.80
2018-04-02T08:17:19.605Z,63.40
2018-04-02T08:19:47.873Z,66.67
2018-04-02T08:22:15.416Z,65.80
2018-04-02T08:24:42.900Z,66.10
2018-04-02T08:27:11.199Z,68.97
2018-04-02T08:29:38.721Z,66.87
2018-04-02T08:32:06.213Z,67.60
2018-04-02T08:34:33.810Z,66.63
2018-04-02T08:37:01.420Z,65.43
2018-04-02T08:39:29.008Z,64.70
2018-04-02T08:41:56.654Z,59.53
2018-04-02T08:44:24.243Z,58.73
2018-04-02T08:46:52.460Z,60.00
2018-04-02T08:49:20.039Z,59.80
2018-04-02T08:51:48.324Z,58.47
2018-04-02T08:54:16.752Z,57.80
2018-04-02T08:56:44.258Z,57.57
2018-04-02T08:59:12.540Z,58.97
2018-04-02T09:01:40.857Z,55.10
2018-04-02T09:04:08.362Z,51.77
2018-04-02T09:06:36.628Z,52.43
2018-04-02T09:09:04.110Z,53.43
2018-04-02T09:11:32.437Z,57.57
2018-04-02T09:13:59.914Z,55.37
2018-04-02T09:16:27.449Z,56.17
2018-04-02T09:18:55.483Z,58.00
2018-04-02T09:21:23.765Z,57.30
2018-04-02T09:23:51.452Z,52.00
2018-04-02T09:26:19.018Z,53.70
2018-04-02T09:28:46.516Z,49.60
2018-04-02T09:31:14.000Z,47.67
2018-04-02T09:33:41.610Z,45.93
2018-04-02T09:36:09.182Z,37.37
2018-04-02T09:38:36.759Z,35.27
2018-04-02T09:41:05.007Z,33.03
2018-04-02T09:43:32.490Z,26.70
2018-04-02T09:46:00.001Z,32.17
2018-04-02T09:48:27.504Z,35.27
2018-04-02T09:50:55.031Z,33.30
2018-04-02T09:53:22.540Z,34.50
2018-04-02T09:55:51.067Z,34.87
2018-04-02T09:58:18.559Z,33.53
2018-04-02T10:00:46.071Z,32.77
2018-04-02T10:03:13.586Z,33.53
2018-04-02T10:05:41.916Z,32.60
2018-04-02T10:08:09.412Z,29.83
2018-04-02T10:10:36.981Z,32.00
2018-04-02T10:13:04.460Z,33.23
2018-04-02T10:15:32.780Z,35.67
2018-04-02T10:18:01.046Z,36.30
2018-04-02T10:20:28.575Z,36.73
2018-04-02T10:22:57.034Z,35.30
2018-04-02T10:25:25.332Z,35.37
2018-04-02T10:27:52.892Z,34.17
2018-04-02T10:30:20.935Z,31.17
2018-04-02T10:32:48.408Z,31.40
2018-04-02T10:35:16.660Z,31.33
2018-04-02T10:37:44.655Z,29.13
2018-04-02T10:40:12.942Z,27.97
2018-04-02T10:42:40.452Z,25.87
2018-04-02T10:45:07.952Z,28.97
2018-04-02T10:47:36.219Z,30.10
2018-04-02T10:50:04.495Z,27.53
2018-04-02T10:52:32.764Z,28.20
2018-04-02T10:55:00.296Z,25.90
2018-04-02T10:57:27.777Z,26.57
2018-04-02T10:59:55.282Z,25.13
2018-04-02T11:02:22.804Z,25.37
2018-04-02T11:04:51.643Z,27.03
2018-04-02T11:07:19.204Z,26.30
2018-04-02T11:09:46.744Z,23.90
2018-04-02T11:12:15.080Z,23.60
2018-04-02T11:14:42.645Z,24.63
2018-04-02T11:17:10.238Z,25.87
2018-04-02T11:19:38.557Z,23.53
2018-04-02T11:22:06.063Z,24.00
2018-04-02T11:24:34.357Z,23.50
2018-04-02T11:27:01.954Z,24.33
2018-04-02T11:29:29.496Z,24.13
2018-04-02T11:31:57.100Z,23.03
2018-04-02T11:34:24.610Z,23.00
2018-04-02T11:36:52.125Z,22.93
2018-04-02T11:39:19.734Z,23.47
2018-04-02T11:41:47.277Z,20.97
2018-04-02T11:44:14.785Z,20.53
2018-04-02T11:46:42.322Z,19.27
2018-04-02T11:49:09.820Z,19.40
2018-04-02T11:51:37.364Z,19.30
2018-04-02T11:54:04.861Z,19.40
2018-04-02T11:56:32.392Z,18.83
2018-04-02T11:58:59.899Z,17.73
2018-04-02T12:01:27.462Z,18.67
2018-04-02T12:03:54.973Z,18.50
2018-04-02T12:06:22.465Z,17.87
2018-04-02T12:08:49.979Z,17.57
2018-04-02T12:11:17.504Z,17.67
2018-04-02T12:13:44.983Z,17.53
2018-04-02T12:16:12.503Z,17.20
2018-04-02T12:18:40.003Z,17.10
2018-04-02T12:21:07.509Z,16.63
2018-04-02T12:23:35.760Z,15.97
2018-04-02T12:26:03.234Z,16.80
2018-04-02T12:28:31.576Z,15.90
2018-04-02T12:30:59.578Z,15.73
2018-04-02T12:33:27.829Z,17.00
2018-04-02T12:35:56.172Z,16.07
2018-04-02T12:38:23.656Z,16.00
2018-04-02T12:40:51.123Z,16.50
2018-04-02T12:43:18.764Z,15.37
2018-04-02T12:45:46.236Z,16.17
2018-04-02T12:48:13.734Z,14.57
2018-04-02T12:50:41.976Z,14.43
2018-04-02T12:53:09.485Z,16.07
2018-04-02T12:55:37.090Z,15.70
2018-04-02T12:58:04.607Z,15.00
2018-04-02T13:00:32.105Z,16.77
2018-04-02T13:02:59.590Z,16.33
2018-04-02T13:05:27.940Z,16.17
2018-04-02T13:07:55.406Z,15.67
2018-04-02T13:10:22.904Z,14.70
2018-04-02T13:12:51.135Z,15.40
2018-04-02T13:15:18.616Z,16.60
2018-04-02T13:17:47.028Z,15.67
2018-04-02T13:20:14.655Z,16.23
2018-04-02T13:22:42.192Z,16.50
2018-04-02T13:25:09.753Z,16.37
2018-04-02T13:27:37.244Z,15.70
2018-04-02T13:30:05.533Z,16.27
2018-04-02T13:32:33.796Z,15.70
2018-04-02T13:35:01.288Z,15.23
2018-04-02T13:37:28.803Z,14.70
2018-04-02T13:39:57.096Z,14.33
2018-04-02T13:42:25.360Z,15.37
2018-04-02T13:44:52.840Z,13.73
2018-04-02T13:47:21.105Z,13.80
2018-04-02T13:49:49.390Z,14.77
2018-04-02T13:52:17.655Z,14.37
2018-04-02T13:54:45.950Z,14.90
2018-04-02T13:57:13.481Z,13.53
2018-04-02T13:59:40.988Z,11.53
2018-04-02T14:02:08.478Z,10.27
2018-04-02T14:04:36.018Z,10.73
2018-04-02T14:07:03.576Z,9.87
2018-04-02T14:09:31.043Z,8.63
2018-04-02T14:11:58.756Z,9.00
2018-04-02T14:14:27.241Z,9.43
2018-04-02T14:16:55.525Z,10.20
2018-04-02T14:19:23.019Z,8.67
2018-04-02T14:21:50.531Z,8.90
2018-04-02T14:24:18.807Z,9.03
2018-04-02T14:26:47.098Z,9.20
2018-04-02T14:29:14.647Z,9.47
2018-04-02T14:31:42.928Z,8.90
2018-04-02T14:34:11.313Z,8.93
2018-04-02T14:36:39.584Z,9.07
2018-04-02T14:39:07.136Z,9.70
2018-04-02T14:41:35.433Z,9.30
2018-04-02T14:44:02.932Z,8.97
2018-04-02T14:46:30.451Z,9.03
2018-04-02T14:48:57.965Z,8.50
2018-04-02T14:51:25.464Z,9.03
2018-04-02T14:53:53.554Z,9.53
2018-04-02T14:56:21.021Z,9.37
2018-04-02T14:58:48.496Z,8.97
2018-04-02T15:01:15.988Z,9.07
2018-04-02T15:03:44.235Z,9.00
2018-04-02T15:06:11.741Z,8.87
2018-04-02T15:08:39.965Z,9.60
2018-04-02T15:11:08.220Z,9.60
2018-04-02T15:13:37.451Z,10.17
2018-04-02T15:16:04.936Z,10.67
2018-04-02T15:18:33.264Z,10.50
2018-04-02T15:21:00.836Z,10.80
2018-04-02T15:23:28.348Z,9.63
2018-04-02T15:25:56.659Z,9.83
2018-04-02T15:28:24.168Z,10.50
2018-04-02T15:30:52.395Z,10.17
2018-04-02T15:33:19.908Z,10.67
2018-04-02T15:35:48.189Z,9.40
2018-04-02T15:38:16.567Z,10.27
2018-04-02T15:40:44.811Z,10.73
2018-04-02T15:43:12.364Z,10.60
2018-04-02T15:45:39.858Z,12.40
2018-04-02T15:48:08.098Z,12.30
2018-04-02T15:50:35.582Z,12.97
2018-04-02T15:53:03.708Z,12.43
2018-04-02T15:55:31.239Z,13.77
2018-04-02T15:57:59.525Z,11.93
2018-04-02T16:00:27.321Z,11.37
2018-04-02T16:02:54.796Z,10.67
2018-04-02T16:05:22.326Z,10.93
2018-04-02T16:07:49.881Z,11.70
2018-04-02T16:10:17.450Z,11.33
2018-04-02T16:12:44.946Z,10.60
2018-04-02T16:15:12.432Z,10.77
2018-04-02T16:17:39.928Z,10.53
2018-04-02T16:20:07.445Z,10.73
2018-04-02T16:22:35.679Z,11.70
2018-04-02T16:27:37.127Z,12.90
2018-04-02T16:30:04.637Z,12.60
2018-04-02T16:32:32.940Z,11.93
2018-04-02T16:35:00.424Z,11.33
2018-04-02T16:37:27.943Z,12.20
2018-04-02T16:39:56.232Z,12.63
2018-04-02T16:42:23.737Z,13.27
2018-04-02T16:44:51.218Z,13.27
2018-04-02T16:47:18.750Z,13.67
2018-04-02T16:49:46.256Z,13.80
2018-04-02T16:52:13.761Z,13.03
2018-04-02T16:54:41.248Z,14.07
2018-04-02T16:57:08.755Z,16.53
2018-04-02T16:59:36.212Z,16.27
2018-04-02T17:02:03.718Z,16.40
2018-04-02T17:04:31.278Z,16.13
2018-04-02T17:06:58.781Z,16.97
2018-04-02T17:09:26.264Z,16.03
2018-04-02T17:11:53.904Z,16.77
2018-04-02T17:14:21.382Z,15.70
2018-04-02T17:16:48.908Z,14.67
2018-04-02T17:19:16.420Z,13.57
2018-04-02T17:21:43.953Z,12.43
2018-04-02T17:24:11.442Z,12.57
2018-04-02T17:26:38.955Z,12.17
2018-04-02T17:29:06.492Z,10.83
2018-04-02T17:31:34.832Z,11.03
2018-04-02T17:34:02.322Z,10.77
2018-04-02T17:36:29.827Z,12.43
2018-04-02T17:38:57.620Z,12.77
2018-04-02T17:41:25.921Z,13.53
2018-04-02T17:43:54.248Z,13.17
2018-04-02T17:46:21.781Z,12.17
2018-04-02T17:48:49.669Z,12.00
2018-04-02T17:51:18.160Z,10.73
2018-04-02T17:53:45.679Z,9.40
2018-04-02T17:56:13.370Z,10.03
2018-04-02T17:58:42.391Z,9.80
2018-04-02T18:01:09.953Z,9.40
2018-04-02T18:03:37.539Z,9.17
2018-04-02T18:06:05.072Z,9.23
2018-04-02T18:08:32.611Z,9.37
2018-04-02T18:11:00.150Z,9.80
2018-04-02T18:13:27.639Z,9.60
2018-04-02T18:15:55.145Z,9.00
2018-04-02T18:18:23.413Z,9.50
2018-04-02T18:20:51.697Z,9.60
2018-04-02T18:23:20.772Z,9.73
2018-04-02T18:25:48.547Z,10.03
2018-04-02T18:28:16.096Z,11.17
2018-04-02T18:30:43.801Z,9.17
2018-04-02T18:33:11.385Z,8.97
2018-04-02T18:35:38.973Z,8.47
2018-04-02T18:38:07.314Z,8.63
2018-04-02T18:40:34.931Z,9.20
2018-04-02T18:43:02.509Z,9.43
2018-04-02T18:45:30.041Z,8.73
2018-04-02T18:47:57.639Z,9.03
2018-04-02T18:50:25.128Z,8.53
2018-04-02T18:52:52.645Z,8.10
2018-04-02T18:55:22.743Z,8.40
2018-04-02T18:57:50.241Z,8.13
2018-04-02T19:00:17.766Z,8.47
2018-04-02T19:02:45.425Z,8.23
2018-04-02T19:05:12.891Z,8.33
2018-04-02T19:07:41.179Z,7.93
2018-04-02T19:10:08.703Z,7.23
2018-04-02T19:12:36.208Z,7.60
2018-04-02T19:15:04.470Z,8.07
2018-04-02T19:17:32.796Z,7.40
2018-04-02T19:20:00.290Z,7.30
2018-04-02T19:22:27.945Z,7.57
2018-04-02T19:24:55.562Z,7.03
2018-04-02T19:27:23.052Z,7.13
2018-04-02T19:29:51.407Z,8.03
2018-04-02T19:32:19.076Z,7.80
2018-04-02T19:34:47.820Z,6.87
2018-04-02T19:37:15.323Z,6.87
2018-04-02T19:39:42.874Z,7.07
2018-04-02T19:42:10.741Z,6.73
2018-04-02T19:44:38.305Z,7.63
2018-04-02T19:47:05.801Z,6.47
2018-04-02T19:49:33.339Z,6.73
2018-04-02T19:52:00.890Z,6.67
2018-04-02T19:54:29.961Z,6.40
2018-04-02T19:56:57.501Z,6.50
2018-04-02T19:59:25.756Z,6.70
2018-04-02T20:01:53.286Z,6.63
2018-04-02T20:04:20.884Z,7.27
2018-04-02T20:06:49.206Z,6.43
2018-04-02T20:09:16.715Z,6.43
2018-04-02T20:11:44.206Z,6.10
2018-04-02T20:14:11.741Z,6.23
2018-04-02T20:16:39.276Z,6.27
2018-04-02T20:19:06.812Z,6.03
2018-04-02T20:21:34.498Z,6.43
2018-04-02T20:24:03.175Z,6.40
2018-04-02T20:26:30.731Z,6.17
2018-04-02T20:28:59.018Z,6.20
2018-04-02T20:31:27.322Z,6.27
2018-04-02T20:33:55.878Z,5.90
2018-04-02T20:36:24.009Z,6.00
2018-04-02T20:38:51.684Z,6.07
2018-04-02T20:41:19.622Z,6.57
2018-04-02T20:43:47.221Z,6.30
2018-04-02T20:46:14.808Z,6.27
2018-04-02T20:48:42.336Z,6.53
2018-04-02T20:51:09.837Z,6.43
2018-04-02T20:53:37.533Z,6.27
2018-04-02T20:56:05.171Z,6.27
2018-04-02T20:58:32.694Z,6.27
2018-04-02T21:01:00.199Z,6.50
2018-04-02T21:03:27.836Z,6.40
2018-04-02T21:05:55.381Z,6.40
2018-04-02T21:08:23.451Z,7.40
2018-04-02T21:10:51.013Z,6.63
2018-04-02T21:13:18.520Z,6.20
2018-04-02T21:15:46.778Z,6.07
2018-04-02T21:18:14.498Z,6.60
2018-04-02T21:20:41.972Z,6.97
2018-04-02T21:23:09.483Z,6.33
2018-04-02T21:25:37.091Z,6.57
2018-04-02T21:28:04.598Z,6.27
2018-04-02T21:30:32.124Z,6.40
2018-04-02T21:33:00.328Z,5.87
2018-04-02T21:35:28.595Z,6.97
2018-04-02T21:37:56.969Z,6.07
2018-04-02T21:40:24.491Z,7.33
2018-04-02T21:42:52.261Z,6.73
2018-04-02T21:45:19.845Z,6.73
2018-04-02T21:47:47.513Z,6.57
2018-04-02T21:50:15.104Z,7.07
2018-04-02T21:52:42.641Z,6.47
2018-04-02T21:55:10.217Z,6.30
2018-04-02T21:57:37.746Z,6.03
2018-04-02T22:00:05.228Z,5.93
2018-04-02T22:02:33.507Z,5.87
2018-04-02T22:05:01.044Z,6.27
2018-04-02T22:07:31.564Z,6.00
2018-04-02T22:09:59.044Z,6.17
2018-04-02T22:12:27.346Z,5.70
2018-04-02T22:14:55.457Z,5.77
2018-04-02T22:17:22.944Z,5.77
2018-04-02T22:19:51.220Z,5.13
2018-04-02T22:22:18.771Z,5.23
2018-04-02T22:24:46.392Z,5.20
2018-04-02T22:27:13.896Z,5.30
2018-04-02T22:29:41.386Z,5.30
2018-04-02T22:32:08.936Z,4.83
2018-04-02T22:34:36.480Z,4.37
2018-04-02T22:37:04.761Z,5.83
2018-04-02T22:39:33.023Z,4.80
2018-04-02T22:42:00.513Z,5.27
2018-04-02T22:44:28.013Z,4.97
2018-04-02T22:46:55.513Z,4.93
2018-04-02T22:49:23.792Z,4.83
2018-04-02T22:51:52.057Z,4.33
2018-04-02T22:54:19.568Z,4.20
2018-04-02T22:56:47.069Z,4.80
2018-04-02T22:59:14.552Z,4.73
2018-04-02T23:01:42.020Z,4.47
2018-04-02T23:04:10.110Z,4.80
2018-04-02T23:06:37.680Z,4.80
2018-04-02T23:09:05.183Z,4.30
2018-04-02T23:11:32.690Z,4.23
2018-04-02T23:14:00.206Z,4.27
2018-04-02T23:16:28.439Z,4.60
2018-04-02T23:18:55.943Z,4.63
2018-04-02T23:21:24.177Z,4.07
2018-04-02T23:23:51.689Z,4.53
2018-04-02T23:26:19.180Z,4.37
2018-04-02T23:28:46.647Z,4.07
2018-04-02T23:31:14.130Z,4.60
2018-04-02T23:33:41.655Z,4.40
2018-04-02T23:36:09.165Z,4.47
2018-04-02T23:38:37.401Z,3.90
2018-04-02T23:41:04.929Z,3.93
2018-04-02T23:43:32.364Z,4.13
2018-04-02T23:46:00.625Z,4.20
2018-04-02T23:48:28.100Z,3.80
2018-04-02T23:50:56.389Z,3.53
2018-04-02T23:53:23.896Z,3.83
2018-04-02T23:55:51.387Z,4.47
2018-04-02T23:58:19.656Z,3.33
